createdAt,value
2018-05-11T00:01:07.640Z,47.12
2018-05-11T00:03:33.617Z,47.11
2018-05-11T00:05:59.602Z,47.11
2018-05-11T00:08:25.588Z,47.08
2018-05-11T00:10:51.578Z,47.10
2018-05-11T00:13:17.552Z,47.08
2018-05-11T00:15:43.534Z,46.93
2018-05-11T00:18:09.517Z,47.06
2018-05-11T00:20:35.500Z,47.05
2018-05-11T00:23:01.481Z,47.08
2018-05-11T00:25:27.458Z,47.05
2018-05-11T00:27:53.473Z,47.05
2018-05-11T00:30:19.455Z,47.05
2018-05-11T00:32:45.470Z,47.04
2018-05-11T00:35:11.472Z,47.05
2018-05-11T00:37:37.446Z,47.04
2018-05-11T00:40:03.398Z,47.03
2018-05-11T00:42:29.374Z,47.01
2018-05-11T00:44:55.377Z,47.00
2018-05-11T00:47:21.364Z,46.99
2018-05-11T00:49:47.377Z,47.02
2018-05-11T00:52:13.358Z,46.99
2018-05-11T00:54:39.341Z,47.01
2018-05-11T00:57:05.306Z,47.00
2018-05-11T00:59:31.295Z,46.99
2018-05-11T01:01:57.270Z,46.98
2018-05-11T01:04:23.257Z,46.95
2018-05-11T01:06:49.290Z,46.98
2018-05-11T01:09:15.278Z,46.96
2018-05-11T01:11:41.251Z,46.98
2018-05-11T01:14:07.235Z,46.96
2018-05-11T01:16:33.209Z,46.95
2018-05-11T01:18:59.223Z,46.96
2018-05-11T01:21:25.171Z,46.96
2018-05-11T01:23:51.158Z,46.94
2018-05-11T01:26:17.182Z,46.90
2018-05-11T01:28:43.142Z,46.95
2018-05-11T01:31:09.115Z,46.94
2018-05-11T01:33:35.105Z,46.92
2018-05-11T01:36:01.084Z,46.92
2018-05-11T01:38:27.067Z,46.90
2018-05-11T01:40:53.099Z,46.91
2018-05-11T01:43:19.051Z,46.91
2018-05-11T01:45:45.035Z,46.93
2018-05-11T01:48:11.018Z,46.91
2018-05-11T01:50:37.005Z,46.89
2018-05-11T01:53:03.007Z,46.88
2018-05-11T01:55:29.029Z,46.89
2018-05-11T01:57:54.984Z,46.89
2018-05-11T02:00:20.963Z,46.88
2018-05-11T02:02:46.954Z,46.90
2018-05-11T02:05:12.971Z,46.88
2018-05-11T02:07:38.911Z,46.87
2018-05-11T02:10:04.899Z,46.86
2018-05-11T02:12:30.936Z,46.88
2018-05-11T02:14:56.890Z,46.86
2018-05-11T02:17:22.869Z,46.84
2018-05-11T02:19:48.858Z,46.84
2018-05-11T02:22:14.841Z,46.87
2018-05-11T02:24:40.815Z,46.86
2018-05-11T02:27:06.810Z,46.84
2018-05-11T02:29:32.786Z,46.82
2018-05-11T02:31:58.783Z,46.85
2018-05-11T02:34:24.776Z,46.84
2018-05-11T02:36:50.780Z,46.81
2018-05-11T02:39:16.753Z,46.83
2018-05-11T02:41:42.783Z,46.83
2018-05-11T02:44:08.764Z,46.83
2018-05-11T02:46:34.754Z,46.82
2018-05-11T02:49:00.815Z,46.68
2018-05-11T02:51:26.768Z,46.81
2018-05-11T02:53:52.744Z,46.82
2018-05-11T02:56:18.762Z,46.82
2018-05-11T02:58:44.740Z,46.83
2018-05-11T03:01:10.734Z,46.82
2018-05-11T03:03:36.726Z,46.81
2018-05-11T03:06:02.705Z,46.80
2018-05-11T03:08:28.689Z,46.80
2018-05-11T03:10:54.680Z,46.80
2018-05-11T03:13:20.664Z,46.81
2018-05-11T03:15:46.721Z,46.80
2018-05-11T03:18:12.697Z,46.80
2018-05-11T03:20:38.639Z,46.81
2018-05-11T03:23:04.615Z,46.80
2018-05-11T03:25:30.612Z,46.79
2018-05-11T03:27:56.576Z,46.79
2018-05-11T03:30:22.551Z,46.79
2018-05-11T03:32:48.544Z,46.80
2018-05-11T03:35:14.523Z,46.78
2018-05-11T03:37:40.518Z,46.81
2018-05-11T03:40:06.498Z,46.81
2018-05-11T03:42:32.524Z,46.79
2018-05-11T03:44:58.466Z,46.78
2018-05-11T03:47:24.489Z,46.79
2018-05-11T03:49:50.435Z,46.80
2018-05-11T03:52:16.424Z,46.79
2018-05-11T03:54:42.440Z,46.80
2018-05-11T03:57:08.386Z,46.79
2018-05-11T03:59:34.443Z,46.74
2018-05-11T04:02:00.399Z,46.72
2018-05-11T04:04:26.383Z,46.80
2018-05-11T04:06:52.401Z,46.78
2018-05-11T04:09:18.383Z,46.79
2018-05-11T04:11:44.410Z,46.76
2018-05-11T04:14:10.390Z,46.78
2018-05-11T04:16:36.376Z,46.79
2018-05-11T04:19:02.331Z,46.79
2018-05-11T04:21:28.341Z,46.77
2018-05-11T04:23:54.324Z,46.78
2018-05-11T04:26:20.304Z,46.74
2018-05-11T04:28:46.265Z,46.76
2018-05-11T04:31:12.256Z,46.77
2018-05-11T04:33:38.274Z,46.78
2018-05-11T04:36:04.237Z,46.82
2018-05-11T04:38:30.251Z,46.90
2018-05-11T04:40:56.203Z,47.00
2018-05-11T04:43:22.177Z,46.99
2018-05-11T04:45:48.154Z,47.01
2018-05-11T04:48:16.411Z,46.99
2018-05-11T04:50:42.432Z,47.11
2018-05-11T04:53:08.458Z,47.11
2018-05-11T04:55:34.400Z,47.08
2018-05-11T04:58:00.448Z,47.40
2018-05-11T05:00:26.436Z,47.15
2018-05-11T05:02:52.415Z,47.67
2018-05-11T05:05:18.396Z,47.36
2018-05-11T05:07:44.385Z,47.46
2018-05-11T05:10:10.365Z,47.55
2018-05-11T05:12:36.349Z,47.80
2018-05-11T05:15:02.327Z,48.09
2018-05-11T05:17:28.317Z,48.41
2018-05-11T05:19:54.308Z,48.26
2018-05-11T05:22:20.306Z,48.81
2018-05-11T05:24:46.340Z,48.67
2018-05-11T05:27:12.300Z,49.04
2018-05-11T05:29:38.314Z,49.13
2018-05-11T05:32:04.337Z,48.87
2018-05-11T05:34:30.318Z,48.45
2018-05-11T05:36:56.380Z,48.62
2018-05-11T05:39:22.425Z,48.33
2018-05-11T05:41:48.409Z,48.21
2018-05-11T05:44:14.360Z,48.16
2018-05-11T05:46:40.366Z,48.20
2018-05-11T05:49:06.392Z,48.33
2018-05-11T05:51:32.391Z,48.10
2018-05-11T05:53:58.442Z,48.13
2018-05-11T05:56:24.428Z,48.32
2018-05-11T05:58:50.451Z,48.90
2018-05-11T06:01:16.443Z,48.89
2018-05-11T06:03:42.451Z,48.50
2018-05-11T06:06:08.434Z,48.84
2018-05-11T06:08:34.421Z,49.01
2018-05-11T06:11:00.398Z,48.90
2018-05-11T06:13:26.381Z,48.95
2018-05-11T06:15:52.371Z,48.78
2018-05-11T06:18:18.410Z,48.39
2018-05-11T06:20:44.417Z,48.46
2018-05-11T06:23:10.378Z,48.76
2018-05-11T06:25:36.353Z,48.45
2018-05-11T06:28:02.345Z,48.86
2018-05-11T06:30:28.347Z,48.33
2018-05-11T06:32:54.327Z,48.38
2018-05-11T06:35:20.308Z,48.50
2018-05-11T06:37:46.326Z,48.95
2018-05-11T06:40:12.309Z,48.25
2018-05-11T06:42:38.318Z,48.60
2018-05-11T06:45:04.275Z,48.20
2018-05-11T06:47:30.261Z,48.46
2018-05-11T06:49:56.273Z,48.39
2018-05-11T06:52:22.301Z,48.21
2018-05-11T06:54:48.261Z,48.16
2018-05-11T06:57:14.396Z,48.12
2018-05-11T06:59:40.405Z,48.24
2018-05-11T07:02:06.412Z,48.18
2018-05-11T07:04:32.394Z,48.17
2018-05-11T07:06:58.377Z,48.14
2018-05-11T07:09:24.367Z,48.12
2018-05-11T07:11:50.384Z,48.04
2018-05-11T07:14:16.344Z,48.06
2018-05-11T07:16:42.331Z,48.04
2018-05-11T07:19:08.306Z,48.06
2018-05-11T07:21:34.291Z,48.02
2018-05-11T07:24:00.271Z,48.05
2018-05-11T07:26:26.283Z,48.28
2018-05-11T07:28:52.269Z,48.22
2018-05-11T07:31:18.233Z,48.27
2018-05-11T07:33:44.229Z,48.29
2018-05-11T07:36:10.247Z,48.31
2018-05-11T07:38:36.200Z,48.48
2018-05-11T07:41:02.216Z,48.34
2018-05-11T07:43:28.308Z,48.25
2018-05-11T07:45:54.178Z,48.22
2018-05-11T07:48:20.159Z,48.20
2018-05-11T07:50:46.172Z,48.22
2018-05-11T07:53:12.154Z,48.20
2018-05-11T07:55:38.177Z,48.20
2018-05-11T07:58:04.172Z,48.37
2018-05-11T08:00:30.158Z,48.44
2018-05-11T08:02:56.166Z,48.70
2018-05-11T08:05:22.111Z,48.51
2018-05-11T08:07:48.093Z,48.29
2018-05-11T08:10:14.057Z,48.65
2018-05-11T08:12:40.041Z,48.19
2018-05-11T08:15:06.041Z,48.49
2018-05-11T08:17:32.019Z,48.15
2018-05-11T08:19:58.011Z,48.11
2018-05-11T08:22:24.002Z,48.07
2018-05-11T08:24:50.064Z,48.13
2018-05-11T08:27:16.007Z,48.01
2018-05-11T08:29:42.012Z,48.01
2018-05-11T08:32:07.960Z,48.10
2018-05-11T08:34:33.946Z,48.14
2018-05-11T08:36:59.924Z,47.96
2018-05-11T08:39:25.905Z,47.92
2018-05-11T08:41:51.892Z,47.90
2018-05-11T08:44:17.907Z,47.90
2018-05-11T08:46:43.898Z,47.88
2018-05-11T08:49:09.882Z,47.87
2018-05-11T08:51:35.855Z,47.97
2018-05-11T08:54:01.864Z,48.01
2018-05-11T08:56:27.811Z,48.11
2018-05-11T08:58:53.796Z,48.11
2018-05-11T09:01:19.801Z,47.93
2018-05-11T09:03:45.780Z,47.85
2018-05-11T09:06:11.767Z,47.89
2018-05-11T09:08:37.813Z,48.03
2018-05-11T09:11:03.744Z,47.79
2018-05-11T09:13:29.765Z,47.77
2018-05-11T09:15:55.772Z,47.75
2018-05-11T09:18:21.722Z,47.73
2018-05-11T09:20:47.764Z,47.73
2018-05-11T09:23:13.710Z,47.70
2018-05-11T09:25:39.698Z,47.69
2018-05-11T09:28:05.706Z,47.68
2018-05-11T09:30:31.744Z,47.65
2018-05-11T09:32:57.728Z,47.65
2018-05-11T09:35:23.672Z,47.64
2018-05-11T09:37:49.675Z,47.65
2018-05-11T09:40:15.696Z,47.67
2018-05-11T09:42:41.642Z,47.76
2018-05-11T09:45:07.625Z,47.85
2018-05-11T09:47:33.654Z,47.81
2018-05-11T09:49:59.646Z,47.95
2018-05-11T09:52:25.658Z,48.00
2018-05-11T09:54:51.633Z,48.00
2018-05-11T09:57:17.644Z,47.98
2018-05-11T09:59:43.618Z,48.26
2018-05-11T10:02:09.661Z,48.05
2018-05-11T10:04:35.644Z,48.06
2018-05-11T10:07:01.669Z,48.01
2018-05-11T10:09:27.648Z,48.06
2018-05-11T10:11:53.597Z,48.11
2018-05-11T10:14:19.582Z,48.01
2018-05-11T10:16:45.583Z,47.96
2018-05-11T10:19:11.555Z,48.10
2018-05-11T10:21:37.572Z,48.02
2018-05-11T10:24:03.553Z,48.30
2018-05-11T10:26:29.543Z,48.31
2018-05-11T10:28:55.541Z,48.12
2018-05-11T10:31:21.477Z,48.18
2018-05-11T10:33:47.451Z,47.91
2018-05-11T10:36:13.448Z,47.92
2018-05-11T10:38:39.432Z,48.26
2018-05-11T10:41:05.456Z,48.01
2018-05-11T10:43:31.435Z,48.00
2018-05-11T10:45:57.641Z,48.39
2018-05-11T10:48:23.659Z,48.34
2018-05-11T10:50:49.607Z,48.09
2018-05-11T10:53:15.617Z,48.07
2018-05-11T10:55:41.597Z,48.09
2018-05-11T10:58:07.586Z,48.12
2018-05-11T11:00:33.607Z,48.18
2018-05-11T11:02:59.586Z,48.17
2018-05-11T11:05:25.613Z,48.21
2018-05-11T11:07:51.600Z,48.79
2018-05-11T11:10:17.551Z,48.24
2018-05-11T11:12:43.541Z,48.61
2018-05-11T11:15:09.551Z,48.63
2018-05-11T11:17:35.496Z,48.13
2018-05-11T11:20:01.579Z,48.12
2018-05-11T11:22:27.480Z,48.17
2018-05-11T11:24:53.464Z,48.13
2018-05-11T11:27:19.463Z,48.23
2018-05-11T11:29:45.447Z,48.01
2018-05-11T11:32:11.456Z,48.01
2018-05-11T11:34:37.508Z,48.11
2018-05-11T11:37:03.515Z,48.16
2018-05-11T11:39:29.505Z,48.00
2018-05-11T11:41:55.582Z,47.92
2018-05-11T11:44:21.504Z,47.91
2018-05-11T11:46:47.511Z,47.84
2018-05-11T11:49:13.485Z,47.90
2018-05-11T11:51:39.472Z,47.84
2018-05-11T11:54:05.459Z,47.87
2018-05-11T11:56:31.513Z,47.76
2018-05-11T11:58:57.444Z,47.68
2018-05-11T12:01:23.434Z,47.74
2018-05-11T12:03:49.456Z,47.78
2018-05-11T12:06:15.485Z,47.68
2018-05-11T12:08:41.431Z,47.74
2018-05-11T12:11:07.415Z,47.76
2018-05-11T12:13:33.437Z,47.74
2018-05-11T12:15:59.397Z,48.44
2018-05-11T12:18:25.381Z,49.66
2018-05-11T12:20:51.366Z,49.00
2018-05-11T12:23:17.408Z,50.41
2018-05-11T12:25:43.414Z,50.51
2018-05-11T12:28:09.394Z,50.07
2018-05-11T12:30:35.347Z,50.42
2018-05-11T12:33:01.369Z,50.89
2018-05-11T12:35:27.310Z,51.53
2018-05-11T12:37:53.320Z,50.79
2018-05-11T12:40:19.340Z,51.40
2018-05-11T12:42:45.291Z,50.96
2018-05-11T12:45:11.384Z,49.86
2018-05-11T12:47:37.400Z,50.19
2018-05-11T12:50:03.418Z,51.33
2018-05-11T12:52:29.394Z,49.85
2018-05-11T12:54:55.408Z,49.62
2018-05-11T12:57:21.406Z,49.75
2018-05-11T12:59:47.391Z,49.80
2018-05-11T13:02:13.385Z,49.87
2018-05-11T13:04:39.396Z,49.30
2018-05-11T13:07:05.457Z,49.33
2018-05-11T13:09:31.400Z,49.13
2018-05-11T13:11:57.381Z,50.03
2018-05-11T13:14:23.398Z,50.03
2018-05-11T13:16:49.364Z,49.30
2018-05-11T13:19:15.347Z,49.45
2018-05-11T13:21:41.329Z,49.76
2018-05-11T13:24:07.352Z,49.19
2018-05-11T13:26:33.339Z,49.29
2018-05-11T13:28:59.371Z,49.68
2018-05-11T13:31:25.439Z,49.12
2018-05-11T13:33:51.440Z,49.51
2018-05-11T13:36:17.454Z,49.43
2018-05-11T13:38:43.446Z,49.05
2018-05-11T13:41:09.420Z,49.38
2018-05-11T13:43:35.463Z,49.63
2018-05-11T13:46:01.508Z,49.03
2018-05-11T13:48:27.542Z,49.57
2018-05-11T13:50:53.514Z,48.97
2018-05-11T13:53:19.492Z,49.45
2018-05-11T13:55:45.509Z,48.89
2018-05-11T13:58:11.487Z,49.40
2018-05-11T14:00:37.501Z,49.41
2018-05-11T14:03:03.460Z,49.33
2018-05-11T14:05:29.490Z,49.81
2018-05-11T14:07:55.464Z,49.16
2018-05-11T14:10:21.521Z,49.26
2018-05-11T14:12:48.037Z,49.16
2018-05-11T14:15:14.777Z,49.18
2018-05-11T14:17:40.803Z,49.10
2018-05-11T14:20:06.763Z,49.27
2018-05-11T14:22:32.796Z,49.09
2018-05-11T14:24:58.843Z,49.52
2018-05-11T14:27:24.741Z,49.11
2018-05-11T14:29:50.753Z,49.02
2018-05-11T14:32:16.736Z,49.15
2018-05-11T14:34:42.739Z,48.93
2018-05-11T14:37:08.750Z,49.24
2018-05-11T14:39:34.851Z,48.88
2018-05-11T14:42:00.834Z,49.22
2018-05-11T14:44:26.837Z,49.25
2018-05-11T14:46:52.870Z,49.10
2018-05-11T14:49:18.860Z,49.26
2018-05-11T14:51:44.841Z,48.80
2018-05-11T14:54:10.836Z,49.02
2018-05-11T14:56:36.815Z,48.97
2018-05-11T14:59:02.827Z,49.18
2018-05-11T15:01:28.837Z,49.22
2018-05-11T15:03:54.791Z,49.06
2018-05-11T15:06:20.917Z,49.53
2018-05-11T15:08:46.936Z,49.16
2018-05-11T15:11:12.931Z,48.98
2018-05-11T15:13:38.934Z,49.04
2018-05-11T15:16:04.925Z,49.67
2018-05-11T15:18:31.046Z,49.47
2018-05-11T15:20:57.034Z,49.30
2018-05-11T15:23:23.022Z,48.91
2018-05-11T15:25:49.037Z,49.38
2018-05-11T15:28:15.041Z,49.28
2018-05-11T15:30:41.024Z,49.31
2018-05-11T15:33:07.041Z,49.21
2018-05-11T15:35:33.026Z,49.00
2018-05-11T15:37:59.052Z,49.07
2018-05-11T15:40:25.024Z,49.00
2018-05-11T15:42:51.028Z,49.10
2018-05-11T15:45:17.078Z,48.99
2018-05-11T15:47:43.045Z,49.54
2018-05-11T15:50:09.034Z,48.89
2018-05-11T15:52:35.078Z,49.31
2018-05-11T15:55:01.070Z,49.28
2018-05-11T15:57:27.036Z,49.01
2018-05-11T15:59:53.046Z,49.31
2018-05-11T16:02:19.018Z,49.39
2018-05-11T16:04:45.559Z,48.84
2018-05-11T16:07:11.533Z,49.44
2018-05-11T16:09:37.508Z,49.46
2018-05-11T16:12:03.499Z,49.72
2018-05-11T16:14:29.743Z,49.07
2018-05-11T16:16:55.598Z,49.65
2018-05-11T16:19:21.584Z,49.10
2018-05-11T16:21:47.725Z,49.13
2018-05-11T16:24:13.738Z,48.87
2018-05-11T16:26:39.704Z,49.41
2018-05-11T16:29:05.781Z,49.09
2018-05-11T16:31:32.041Z,49.12
2018-05-11T16:33:58.846Z,49.46
2018-05-11T16:36:27.318Z,49.04
2018-05-11T16:38:53.306Z,49.04
2018-05-11T16:41:19.639Z,49.15
2018-05-11T16:43:45.781Z,49.12
2018-05-11T16:46:11.986Z,49.12
2018-05-11T16:48:38.668Z,49.00
2018-05-11T16:51:04.793Z,49.11
2018-05-11T16:53:30.955Z,49.20
2018-05-11T16:55:56.981Z,49.13
2018-05-11T16:58:22.966Z,49.38
2018-05-11T17:00:49.335Z,49.08
2018-05-11T17:03:15.315Z,49.00
2018-05-11T17:05:41.259Z,49.19
2018-05-11T17:08:08.344Z,48.93
2018-05-11T17:10:34.361Z,49.24
2018-05-11T17:13:00.363Z,48.95
2018-05-11T17:15:26.341Z,48.90
2018-05-11T17:17:52.331Z,48.88
2018-05-11T17:20:18.320Z,49.24
2018-05-11T17:22:44.358Z,48.93
2018-05-11T17:25:10.325Z,49.53
2018-05-11T17:27:36.323Z,49.36
2018-05-11T17:30:02.354Z,49.64
2018-05-11T17:32:28.292Z,49.26
2018-05-11T17:34:54.306Z,49.57
2018-05-11T17:37:20.260Z,49.21
2018-05-11T17:39:46.464Z,50.02
2018-05-11T17:42:12.432Z,49.17
2018-05-11T17:44:38.481Z,49.18
2018-05-11T17:47:04.465Z,49.50
2018-05-11T17:49:30.428Z,49.18
2018-05-11T17:51:59.488Z,49.31
2018-05-11T17:54:25.463Z,49.73
2018-05-11T17:56:51.478Z,49.19
2018-05-11T17:59:17.446Z,49.23
2018-05-11T18:01:43.492Z,49.20
2018-05-11T18:04:09.504Z,49.38
2018-05-11T18:06:35.602Z,49.35
2018-05-11T18:09:01.526Z,49.44
2018-05-11T18:11:27.516Z,49.02
2018-05-11T18:13:53.468Z,49.22
2018-05-11T18:16:19.450Z,49.00
2018-05-11T18:18:45.448Z,49.04
2018-05-11T18:21:11.464Z,49.03
2018-05-11T18:23:37.418Z,48.85
2018-05-11T18:26:03.401Z,48.93
2018-05-11T18:28:29.409Z,48.99
2018-05-11T18:30:55.402Z,48.78
2018-05-11T18:33:21.365Z,48.80
2018-05-11T18:35:47.405Z,48.78
2018-05-11T18:38:13.381Z,48.61
2018-05-11T18:40:39.403Z,48.61
2018-05-11T18:43:05.422Z,48.84
2018-05-11T18:45:31.506Z,48.84
2018-05-11T18:47:57.467Z,48.75
2018-05-11T18:50:23.511Z,48.98
2018-05-11T18:52:49.492Z,48.96
2018-05-11T18:55:15.462Z,48.84
2018-05-11T18:57:41.444Z,49.31
2018-05-11T19:00:07.426Z,49.04
2018-05-11T19:02:33.446Z,49.00
2018-05-11T19:04:59.399Z,48.82
2018-05-11T19:07:25.415Z,49.08
2018-05-11T19:09:51.394Z,48.85
2018-05-11T19:12:17.410Z,48.94
2018-05-11T19:14:43.396Z,48.96
2018-05-11T19:17:09.403Z,49.11
2018-05-11T19:19:35.408Z,49.10
2018-05-11T19:22:01.388Z,49.55
2018-05-11T19:24:27.394Z,49.43
2018-05-11T19:26:53.375Z,49.14
2018-05-11T19:29:19.361Z,49.36
2018-05-11T19:31:45.393Z,49.20
2018-05-11T19:34:11.403Z,49.11
2018-05-11T19:36:37.379Z,49.30
2018-05-11T19:39:03.364Z,49.33
2018-05-11T19:41:29.501Z,49.31
2018-05-11T19:43:55.479Z,49.19
2018-05-11T19:46:21.531Z,49.46
2018-05-11T19:48:47.512Z,49.78
2018-05-11T19:51:13.528Z,49.21
2018-05-11T19:53:39.487Z,49.29
2018-05-11T19:56:05.552Z,49.24
2018-05-11T19:58:31.489Z,49.09
2018-05-11T20:00:57.474Z,49.05
2018-05-11T20:03:23.482Z,49.11
2018-05-11T20:05:49.482Z,49.16
2018-05-11T20:08:15.440Z,49.16
2018-05-11T20:10:41.425Z,49.27
2018-05-11T20:13:07.450Z,49.37
2018-05-11T20:15:33.443Z,49.31
2018-05-11T20:17:59.427Z,49.38
2018-05-11T20:20:25.442Z,49.71
2018-05-11T20:22:51.396Z,49.57
2018-05-11T20:25:17.389Z,49.15
2018-05-11T20:27:43.401Z,49.51
2018-05-11T20:30:09.361Z,49.76
2018-05-11T20:32:35.435Z,49.48
2018-05-11T20:35:01.375Z,49.44
2018-05-11T20:37:27.417Z,49.37
2018-05-11T20:39:53.356Z,49.16
2018-05-11T20:42:19.373Z,49.20
2018-05-11T20:44:45.360Z,49.23
2018-05-11T20:47:11.374Z,49.11
2018-05-11T20:49:37.341Z,49.11
2018-05-11T20:52:03.329Z,49.06
2018-05-11T20:54:29.318Z,49.07
2018-05-11T20:56:55.295Z,49.04
2018-05-11T20:59:21.320Z,49.03
2018-05-11T21:01:47.309Z,49.03
2018-05-11T21:04:13.284Z,49.00
2018-05-11T21:06:39.267Z,49.08
2018-05-11T21:09:05.279Z,48.98
2018-05-11T21:11:31.264Z,48.97
2018-05-11T21:13:57.209Z,48.96
2018-05-11T21:16:23.218Z,49.05
2018-05-11T21:18:49.177Z,48.92
2018-05-11T21:21:15.163Z,49.00
2018-05-11T21:23:41.146Z,48.85
2018-05-11T21:26:07.131Z,48.83
2018-05-11T21:28:33.109Z,48.80
2018-05-11T21:30:59.091Z,48.80
2018-05-11T21:33:25.169Z,48.77
2018-05-11T21:35:51.112Z,48.76
2018-05-11T21:38:17.092Z,48.74
2018-05-11T21:40:43.036Z,48.69
2018-05-11T21:43:09.063Z,48.70
2018-05-11T21:45:35.039Z,48.64
2018-05-11T21:48:01.023Z,48.65
2018-05-11T21:50:27.035Z,48.62
2018-05-11T21:52:52.999Z,48.60
2018-05-11T21:55:18.985Z,48.59
2018-05-11T21:57:45.001Z,48.55
2018-05-11T22:00:10.955Z,48.50
2018-05-11T22:02:36.964Z,48.50
2018-05-11T22:05:02.954Z,48.50
2018-05-11T22:07:28.938Z,48.47
2018-05-11T22:09:54.927Z,48.45
2018-05-11T22:12:20.904Z,48.41
2018-05-11T22:14:46.919Z,48.40
2018-05-11T22:17:12.873Z,48.39
2018-05-11T22:19:38.855Z,48.35
2018-05-11T22:22:04.865Z,48.34
2018-05-11T22:24:30.842Z,48.32
2018-05-11T22:26:56.852Z,48.29
2018-05-11T22:29:22.796Z,48.27
2018-05-11T22:31:48.783Z,48.24
2018-05-11T22:34:14.799Z,48.25
2018-05-11T22:36:40.813Z,48.22
2018-05-11T22:39:06.772Z,48.23
2018-05-11T22:41:32.754Z,48.17
2018-05-11T22:43:58.764Z,48.17
2018-05-11T22:46:24.715Z,48.16
2018-05-11T22:48:50.698Z,48.00
2018-05-11T22:51:16.684Z,48.12
2018-05-11T22:53:42.657Z,48.09
2018-05-11T22:56:08.665Z,48.09
2018-05-11T22:58:34.616Z,48.10
2018-05-11T23:01:00.644Z,48.03
2018-05-11T23:03:26.615Z,48.01
2018-05-11T23:05:52.570Z,48.02
2018-05-11T23:08:18.550Z,47.99
2018-05-11T23:10:44.529Z,47.86
2018-05-11T23:13:10.550Z,47.92
2018-05-11T23:15:36.540Z,47.97
2018-05-11T23:18:02.490Z,47.92
2018-05-11T23:20:28.467Z,47.90
2018-05-11T23:22:54.487Z,47.89
2018-05-11T23:25:20.462Z,47.88
2018-05-11T23:27:46.523Z,47.90
2018-05-11T23:30:12.458Z,47.85
2018-05-11T23:32:38.435Z,47.83
2018-05-11T23:35:04.490Z,47.81
2018-05-11T23:37:30.457Z,47.82
2018-05-11T23:39:56.402Z,47.63
2018-05-11T23:42:22.654Z,47.78
2018-05-11T23:44:48.640Z,47.75
2018-05-11T23:47:14.598Z,47.78
2018-05-11T23:49:40.632Z,47.74
2018-05-11T23:52:06.583Z,47.69
2018-05-11T23:54:32.532Z,47.70
2018-05-11T23:56:58.520Z,47.67
2018-05-11T23:59:24.499Z,47.64
